Cascade, Maryland
Current Conditions -  °F | °C
As of 3:53 PM on Friday 19 Dec 2014 (Local Time) from KRYT Reporting Station
Few Clouds Few Clouds  
Wind Chill: 31°   Ceiling: Unl
Heat Index: 35°   Visibility: 10mi
Dew Point: 21°   Wind: 5mph
Humidity: 57%   Direction: NA
Pressure: 30.12"   Gusts: NA
Location:  39.71°N, 77.49°W
Report Text: KRYT 192053Z AUTO VRB04KT 10SM FEW033 02/M06 A3012 RMK AO2 SLP213 T00171061 53012 $
Loading
Personal Weather Stations






























Interactive Weather Map New forecast layout! Learn more

10-Day Weather Forecast

Advertisements
Track Severe Weather on mobile